Time;durP1;ratioP1;P1;durP2;ratioP2;P2;SDS_P1;SDS_P2;PMS_P1;PMS_P2;Temp;Humidity;BMP_temperature;BMP_pressure;BME280_temperature;BME280_humidity;BME280_pressure;Samples;Min_cycle;Max_cycle;Signal;HPM_P1;HPM_P2
2023/12/08 00:01:20;;;;;;;27.83;14.32;;;-1.30;99.90;;;-1.38;100.00;100571.34;5021096;28;20103;-80
2023/12/08 00:03:46;;;;;;;31.00;15.07;;;-1.30;99.90;;;-1.43;100.00;100556.69;5023712;28;20038;-80
2023/12/08 00:06:12;;;;;;;29.63;14.00;;;-1.40;99.90;;;-1.43;100.00;100567.41;5030289;28;20029;-79
2023/12/08 00:08:37;;;;;;;30.20;14.35;;;-1.40;99.90;;;-1.52;100.00;100553.03;5032589;28;20045;-80
2023/12/08 00:11:05;;;;;;;28.02;14.05;;;-1.50;99.90;;;-1.52;100.00;100550.34;5019933;28;20045;-80
2023/12/08 00:13:31;;;;;;;30.25;14.55;;;-1.60;99.90;;;-1.49;100.00;100550.91;5026564;28;20032;-80
2023/12/08 00:15:56;;;;;;;29.35;14.88;;;-1.70;99.90;;;-1.56;100.00;100539.06;5026067;28;20041;-81
2023/12/08 00:18:22;;;;;;;29.85;15.30;;;-1.70;99.90;;;-1.57;100.00;100534.72;5022251;28;20038;-80
2023/12/08 00:20:48;;;;;;;30.45;15.10;;;-1.80;99.90;;;-1.54;100.00;100523.72;5027407;28;20275;-80
2023/12/08 00:23:14;;;;;;;32.10;15.40;;;-1.70;99.90;;;-1.57;100.00;100525.84;5032119;28;20063;-80
2023/12/08 00:25:40;;;;;;;33.08;15.38;;;-1.70;99.90;;;-1.56;100.00;100515.00;5024193;28;20041;-80
2023/12/08 00:28:06;;;;;;;33.80;15.60;;;-1.70;99.90;;;-1.54;100.00;100523.72;5032072;28;20056;-79
2023/12/08 00:30:32;;;;;;;31.10;15.32;;;-1.70;99.90;;;-1.58;100.00;100518.81;5021044;28;20033;-80
2023/12/08 00:32:58;;;;;;;30.40;15.05;;;-1.70;99.90;;;-1.55;100.00;100491.78;5024431;28;20049;-79
2023/12/08 00:35:24;;;;;;;40.75;16.00;;;-1.60;99.90;;;-1.58;100.00;100484.84;5022416;28;20041;-80
2023/12/08 00:37:49;;;;;;;36.13;16.63;;;-1.60;99.90;;;-1.64;100.00;100485.44;5026767;28;20139;-80
2023/12/08 00:40:17;;;;;;;32.67;15.38;;;-1.60;99.90;;;-1.63;100.00;100473.75;5027356;28;20033;-80
2023/12/08 00:42:43;;;;;;;33.92;15.45;;;-1.60;99.90;;;-1.68;100.00;100473.31;5022815;28;20127;-79
2023/12/08 00:45:09;;;;;;;31.70;16.02;;;-1.60;99.90;;;-1.63;100.00;100463.03;5030456;28;20141;-78
2023/12/08 00:47:35;;;;;;;32.50;16.27;;;-1.60;99.90;;;-1.69;100.00;100440.38;5029959;28;20485;-79
2023/12/08 00:50:00;;;;;;;32.67;15.95;;;-1.60;99.90;;;-1.64;100.00;100442.63;5045270;28;20034;-79
2023/12/08 00:52:26;;;;;;;37.22;16.00;;;-1.50;99.90;;;-1.62;100.00;100437.97;5024987;28;20107;-80
2023/12/08 00:54:52;;;;;;;34.05;15.45;;;-1.50;99.90;;;-1.58;100.00;100433.19;5019017;28;20451;-80
2023/12/08 00:57:18;;;;;;;33.67;16.40;;;-1.50;99.90;;;-1.50;100.00;100434.13;5029213;28;20048;-79
2023/12/08 00:59:43;;;;;;;34.10;14.63;;;-1.50;99.90;;;-1.48;100.00;100439.38;5017095;28;20042;-80
2023/12/08 01:02:09;;;;;;;32.63;15.13;;;-1.40;99.90;;;-1.39;100.00;100443.03;5018160;28;20048;-79
2023/12/08 01:04:34;;;;;;;35.20;15.85;;;-1.40;99.90;;;-1.43;100.00;100434.41;5023158;28;20079;-79
2023/12/08 01:07:00;;;;;;;32.53;15.60;;;-1.30;99.90;;;-1.37;100.00;100427.66;5025131;28;20477;-80
2023/12/08 01:09:26;;;;;;;30.45;15.98;;;-1.30;99.90;;;-1.29;100.00;100429.63;5030977;28;20042;-79
2023/12/08 01:11:52;;;;;;;34.42;15.55;;;-1.30;99.90;;;-1.29;100.00;100435.78;5025256;28;20045;-79
2023/12/08 01:14:18;;;;;;;32.50;15.57;;;-1.20;99.90;;;-1.29;100.00;100451.84;5027786;28;20128;-79
2023/12/08 01:16:44;;;;;;;33.92;15.20;;;-1.20;99.90;;;-1.24;100.00;100443.41;5027411;28;20112;-79
2023/12/08 01:19:11;;;;;;;32.55;14.82;;;-1.20;99.90;;;-1.22;100.00;100450.28;5019134;28;20041;-79
2023/12/08 01:21:38;;;;;;;31.98;15.25;;;-1.10;99.90;;;-1.17;100.00;100458.75;5030902;28;20500;-80
2023/12/08 01:24:05;;;;;;;33.70;14.80;;;-1.10;99.90;;;-1.24;100.00;100443.41;5024619;28;20092;-79
2023/12/08 01:26:31;;;;;;;30.45;14.07;;;-1.10;99.90;;;-1.26;100.00;100451.56;5031282;28;20144;-80
2023/12/08 01:28:57;;;;;;;31.17;14.98;;;-1.10;99.90;;;-1.28;100.00;100453.53;5030812;28;20029;-81
2023/12/08 01:31:23;;;;;;;31.73;15.32;;;-1.20;99.90;;;-1.28;100.00;100447.38;5004578;28;20049;-80
2023/12/08 01:33:49;;;;;;;29.80;14.43;;;-1.20;99.90;;;-1.25;100.00;100441.72;5024535;28;20041;-80
2023/12/08 01:36:14;;;;;;;31.45;15.35;;;-1.20;99.90;;;-1.19;100.00;100425.06;5029582;28;20041;-80
2023/12/08 01:38:45;;;;;;;31.05;14.95;;;-1.20;99.90;;;-1.28;100.00;100421.44;5029592;28;20029;-80
2023/12/08 01:41:16;;;;;;;28.70;14.02;;;-1.20;99.90;;;-1.27;100.00;100408.91;5020935;28;20034;-80
2023/12/08 01:43:45;;;;;;;32.80;14.65;;;-1.30;99.90;;;-1.32;100.00;100403.97;5024212;28;20057;-79
2023/12/08 01:46:17;;;;;;;30.98;15.60;;;-1.30;99.90;;;-1.25;100.00;100401.56;5022050;28;20033;-79
2023/12/08 01:48:43;;;;;;;31.55;14.95;;;-1.30;99.90;;;-1.27;100.00;100391.00;5014633;28;20478;-79
2023/12/08 01:51:11;;;;;;;34.92;15.95;;;-1.20;99.90;;;-1.19;100.00;100382.22;5029401;28;20500;-79
2023/12/08 01:53:38;;;;;;;31.25;15.77;;;-1.10;99.90;;;-1.18;100.00;100378.56;5025514;28;20032;-79
2023/12/08 01:56:07;;;;;;;31.20;14.57;;;-1.10;99.90;;;-1.18;100.00;100368.72;5021131;28;20053;-79
2023/12/08 01:58:33;;;;;;;30.95;15.13;;;-1.00;99.90;;;-1.27;100.00;100342.81;5022636;28;20103;-79
2023/12/08 02:01:04;;;;;;;31.65;14.18;;;-1.00;99.90;;;-1.19;100.00;100360.81;5011326;28;20505;-80
2023/12/08 02:03:35;;;;;;;27.23;13.43;;;-1.00;99.90;;;-1.12;100.00;100355.72;5020945;28;20128;-80
2023/12/08 02:06:00;;;;;;;32.30;14.63;;;-1.00;99.90;;;-1.14;100.00;100347.00;5039532;28;20041;-80
2023/12/08 02:08:27;;;;;;;29.83;14.98;;;-1.00;99.90;;;-1.15;100.00;100332.75;5030270;28;20401;-79
2023/12/08 02:10:53;;;;;;;32.83;15.45;;;-1.10;99.90;;;-1.24;100.00;100331.78;5031817;28;20046;-80
2023/12/08 02:13:21;;;;;;;28.27;13.90;;;-1.10;99.90;;;-1.19;100.00;100336.72;5042860;28;20107;-80
2023/12/08 02:15:53;;;;;;;29.65;15.15;;;-1.10;99.90;;;-1.16;100.00;100337.28;5027271;28;20358;-80
2023/12/08 02:18:20;;;;;;;30.65;14.88;;;-1.10;99.90;;;-1.20;100.00;100317.13;5021539;28;20060;-80
2023/12/08 02:20:46;;;;;;;27.67;14.93;;;-1.00;99.90;;;-1.17;100.00;100316.00;5028748;28;20591;-80
2023/12/08 02:23:12;;;;;;;32.35;15.45;;;-1.00;99.90;;;-1.13;100.00;100317.38;5032385;28;20069;-80
2023/12/08 02:25:37;;;;;;;33.05;15.80;;;-0.90;99.90;;;-1.10;100.00;100314.41;5022760;28;20079;-79
2023/12/08 02:28:05;;;;;;;27.98;14.80;;;-0.90;99.90;;;-1.11;100.00;100311.88;5029740;28;20039;-79
2023/12/08 02:30:32;;;;;;;33.33;15.55;;;-0.90;99.90;;;-1.05;100.00;100304.09;5019535;28;20042;-80
2023/12/08 02:33:22;;;;;;;32.72;15.90;;;-0.90;99.90;;;-0.98;100.00;100295.47;5022539;28;20052;-80
2023/12/08 02:35:48;;;;;;;31.15;14.93;;;-0.80;99.90;;;-0.99;100.00;100308.00;5029844;28;20034;-80
2023/12/08 02:38:20;;;;;;;32.78;15.75;;;-0.80;99.90;;;-0.93;100.00;100306.56;5029912;28;20029;-80
2023/12/08 02:40:46;;;;;;;32.45;16.13;;;-0.80;99.90;;;-0.93;100.00;100304.75;5020839;28;20041;-80
2023/12/08 02:43:11;;;;;;;30.20;14.35;;;-0.70;99.90;;;-0.93;100.00;100311.94;5017883;28;20040;-80
2023/12/08 02:45:37;;;;;;;34.58;15.13;;;-0.70;99.90;;;-0.95;100.00;100303.19;5020949;28;20049;-80
2023/12/08 02:48:03;;;;;;;33.53;15.52;;;-0.70;99.90;;;-0.79;100.00;100308.75;5021884;28;20037;-80
2023/12/08 02:50:29;;;;;;;28.98;15.50;;;-0.70;99.90;;;-0.76;100.00;100307.59;5014079;28;20034;-80
2023/12/08 02:52:55;;;;;;;30.33;14.05;;;-0.60;99.90;;;-0.71;100.00;100315.19;5042810;28;20121;-80
2023/12/08 02:55:21;;;;;;;29.63;14.90;;;-0.60;99.90;;;-0.75;100.00;100302.09;5027485;28;20064;-80
2023/12/08 02:57:46;;;;;;;29.42;14.55;;;-0.60;99.90;;;-0.70;100.00;100314.19;5028844;28;20029;-80
2023/12/08 03:00:13;;;;;;;26.98;13.00;;;-0.60;99.90;;;-0.70;100.00;100322.22;5020985;28;20107;-80
2023/12/08 03:02:38;;;;;;;31.23;15.05;;;-0.50;99.90;;;-0.69;100.00;100314.00;5024833;28;20485;-81
2023/12/08 03:05:04;;;;;;;28.25;15.43;;;-0.50;99.90;;;-0.60;100.00;100320.31;5024172;28;20041;-81
2023/12/08 03:07:30;;;;;;;28.63;14.73;;;-0.50;99.90;;;-0.53;100.00;100320.56;5024221;28;20069;-79
2023/12/08 03:09:56;;;;;;;31.38;14.85;;;-0.50;99.90;;;-0.54;100.00;100322.38;5023081;28;20452;-79
2023/12/08 03:12:21;;;;;;;28.40;14.18;;;-0.40;99.90;;;-0.57;100.00;100306.59;5025276;28;20040;-79
2023/12/08 03:14:47;;;;;;;27.95;14.30;;;-0.50;99.90;;;-0.51;100.00;100306.03;5033571;28;20037;-79
2023/12/08 03:17:13;;;;;;;32.78;15.55;;;-0.40;99.90;;;-0.53;100.00;100294.59;5028257;28;20041;-80
2023/12/08 03:19:40;;;;;;;26.52;13.93;;;-0.50;99.90;;;-0.51;100.00;100294.44;5033689;28;20029;-79
2023/12/08 03:22:06;;;;;;;30.05;15.40;;;-0.40;99.90;;;-0.48;100.00;100296.81;5030305;28;20034;-80
2023/12/08 03:24:32;;;;;;;28.23;15.15;;;-0.40;99.90;;;-0.44;100.00;100296.34;5029471;28;20048;-79
2023/12/08 03:26:57;;;;;;;29.17;14.77;;;-0.40;99.90;;;-0.47;100.00;100296.66;5033243;28;20037;-79
2023/12/08 03:29:23;;;;;;;28.60;14.48;;;-0.40;99.90;;;-0.51;100.00;100289.06;5024128;28;20037;-79
2023/12/08 03:31:49;;;;;;;28.35;14.35;;;-0.40;99.90;;;-0.51;100.00;100292.63;5019691;28;20033;-79
2023/12/08 03:34:14;;;;;;;30.02;15.00;;;-0.40;99.90;;;-0.56;100.00;100278.81;5034501;28;20071;-79
2023/12/08 03:36:40;;;;;;;27.15;14.35;;;-0.40;99.90;;;-0.51;100.00;100271.16;5019230;28;20045;-79
2023/12/08 03:39:06;;;;;;;31.95;14.95;;;-0.40;99.90;;;-0.56;100.00;100265.41;5025396;28;20064;-80
2023/12/08 03:41:31;;;;;;;29.15;15.25;;;-0.40;99.90;;;-0.46;100.00;100265.34;5017891;28;20103;-80
2023/12/08 03:43:57;;;;;;;30.05;15.15;;;-0.30;99.90;;;-0.51;100.00;100257.78;5021354;28;20050;-80
2023/12/08 03:46:23;;;;;;;28.42;15.60;;;-0.40;99.90;;;-0.41;100.00;100264.88;5025802;28;20045;-79
2023/12/08 03:48:49;;;;;;;28.80;14.75;;;-0.40;99.90;;;-0.45;100.00;100261.66;5032269;28;20037;-80
2023/12/08 03:51:15;;;;;;;31.08;15.05;;;-0.40;99.90;;;-0.42;100.00;100244.44;5026487;28;20037;-79
2023/12/08 03:53:41;;;;;;;27.83;14.10;;;-0.40;99.90;;;-0.37;100.00;100247.47;5023673;28;20038;-79
2023/12/08 03:56:07;;;;;;;30.70;15.50;;;-0.40;99.90;;;-0.38;100.00;100229.72;5032358;28;20052;-79
2023/12/08 03:58:33;;;;;;;32.30;15.23;;;-0.30;99.90;;;-0.31;100.00;100217.38;5028485;28;20036;-80
2023/12/08 04:00:59;;;;;;;29.73;16.13;;;-0.30;99.90;;;-0.33;100.00;100216.69;5032612;28;20042;-81
2023/12/08 04:03:24;;;;;;;36.03;16.40;;;-0.30;99.90;;;-0.42;100.00;100221.13;5019162;28;20394;-79
2023/12/08 04:05:50;;;;;;;32.58;16.50;;;-0.30;99.90;;;-0.35;100.00;100224.03;5021420;28;20370;-80
2023/12/08 04:08:17;;;;;;;30.38;16.05;;;-0.30;99.90;;;-0.34;100.00;100239.13;5027473;28;20545;-79
2023/12/08 04:10:43;;;;;;;31.25;16.40;;;-0.20;99.90;;;-0.28;100.00;100241.19;5032204;28;20029;-80
2023/12/08 04:13:09;;;;;;;32.30;16.45;;;-0.20;99.90;;;-0.32;100.00;100226.41;5032098;28;20132;-80
2023/12/08 04:15:34;;;;;;;29.50;16.10;;;-0.20;99.90;;;-0.37;100.00;100216.16;5025416;28;20215;-80
2023/12/08 04:18:00;;;;;;;32.30;16.38;;;-0.20;99.90;;;-0.34;100.00;100223.91;5030667;28;20057;-79
2023/12/08 04:20:26;;;;;;;31.98;16.05;;;-0.10;99.90;;;-0.33;100.00;100224.72;5019185;28;20164;-79
2023/12/08 04:22:51;;;;;;;32.05;15.20;;;-0.10;99.90;;;-0.33;100.00;100228.25;5025950;28;20106;-80
2023/12/08 04:25:17;;;;;;;30.02;16.00;;;-0.10;99.90;;;-0.35;100.00;100226.72;5032120;28;20139;-80
2023/12/08 04:27:43;;;;;;;34.97;16.80;;;-0.10;99.90;;;-0.35;100.00;100213.31;5031676;28;20382;-80
2023/12/08 04:30:09;;;;;;;32.42;17.13;;;-0.10;99.90;;;-0.38;100.00;100208.28;5025123;28;20038;-79
2023/12/08 04:32:35;;;;;;;32.70;17.13;;;-0.10;99.90;;;-0.34;100.00;100209.63;5024949;28;20064;-80
2023/12/08 04:35:00;;;;;;;30.85;15.50;;;0.00;99.90;;;-0.27;100.00;100209.88;5034589;28;20070;-80
2023/12/08 04:37:26;;;;;;;31.85;15.90;;;0.00;99.90;;;-0.25;100.00;100208.72;5019813;28;20042;-79
2023/12/08 04:39:52;;;;;;;30.55;15.85;;;0.00;99.90;;;-0.31;100.00;100195.91;5020680;28;20033;-79
2023/12/08 04:42:18;;;;;;;29.45;16.27;;;0.00;99.90;;;-0.30;100.00;100200.28;5034577;28;20044;-79
2023/12/08 04:44:44;;;;;;;33.63;15.80;;;0.00;99.90;;;-0.23;100.00;100208.53;5027025;28;20044;-79
2023/12/08 04:47:11;;;;;;;28.52;14.73;;;0.00;99.90;;;-0.27;100.00;100191.91;5034436;28;20083;-80
2023/12/08 04:49:37;;;;;;;29.70;16.05;;;0.00;99.90;;;-0.21;100.00;100202.03;5026145;28;20061;-79
2023/12/08 04:52:03;;;;;;;30.83;15.75;;;0.00;99.90;;;-0.19;100.00;100202.72;5025425;28;20104;-80
2023/12/08 04:54:29;;;;;;;31.20;15.43;;;0.00;99.90;;;-0.21;100.00;100196.69;5024041;28;20093;-81
2023/12/08 04:56:54;;;;;;;28.92;14.90;;;0.00;99.90;;;-0.24;100.00;100197.00;5027204;28;20037;-80
2023/12/08 04:59:20;;;;;;;30.10;14.32;;;0.00;99.90;;;-0.22;100.00;100200.34;5032592;28;20556;-79
2023/12/08 05:01:51;;;;;;;29.50;16.60;;;0.00;99.90;;;-0.20;100.00;100203.72;5012759;28;20103;-80
2023/12/08 05:04:20;;;;;;;29.92;15.90;;;0.00;99.90;;;-0.13;100.00;100214.66;5037945;28;20410;-79
2023/12/08 05:06:48;;;;;;;27.77;15.13;;;0.00;99.90;;;-0.09;100.00;100216.03;5030660;28;20092;-79
2023/12/08 05:09:14;;;;;;;27.35;15.10;;;0.00;99.90;;;-0.01;100.00;100217.91;5031473;28;20030;-79
2023/12/08 05:11:40;;;;;;;29.27;14.23;;;0.00;99.90;;;0.03;100.00;100218.44;5032251;28;20033;-80
2023/12/08 05:14:06;;;;;;;29.13;14.95;;;0.10;99.90;;;-0.05;100.00;100211.16;5031134;28;20041;-79
2023/12/08 05:16:31;;;;;;;25.33;13.85;;;0.00;99.90;;;-0.07;100.00;100216.72;5029439;28;20116;-80
2023/12/08 05:18:57;;;;;;;26.48;14.18;;;0.00;99.90;;;-0.07;100.00;100210.50;5024178;28;20056;-80
2023/12/08 05:21:24;;;;;;;25.00;13.32;;;0.00;99.90;;;-0.01;100.00;100209.84;5018227;28;20046;-79
2023/12/08 05:23:50;;;;;;;29.52;14.27;;;0.00;99.90;;;-0.02;100.00;100210.84;5019561;28;20500;-79
2023/12/08 05:26:15;;;;;;;27.85;14.38;;;0.00;99.90;;;-0.03;100.00;100210.03;5023923;28;20128;-80
2023/12/08 05:28:41;;;;;;;24.85;13.10;;;0.00;99.90;;;-0.02;100.00;100195.63;5025975;28;20125;-79
2023/12/08 05:31:07;;;;;;;27.15;13.65;;;0.00;99.90;;;0.20;100.00;100208.63;5030647;28;20052;-79
2023/12/08 05:33:32;;;;;;;27.80;13.82;;;0.00;99.90;;;0.01;100.00;100207.03;5027769;28;20064;-79
2023/12/08 05:35:58;;;;;;;25.95;13.45;;;0.00;99.90;;;-0.04;100.00;100205.66;5025415;28;20045;-80
2023/12/08 05:38:24;;;;;;;26.08;13.75;;;0.00;99.90;;;-0.05;100.00;100208.50;5031027;28;20046;-79
2023/12/08 05:40:49;;;;;;;26.27;13.43;;;0.00;99.90;;;-0.13;100.00;100205.75;5027919;28;20029;-80
2023/12/08 05:43:15;;;;;;;22.77;13.60;;;0.00;99.90;;;-0.06;100.00;100218.41;5028628;28;20389;-79
2023/12/08 05:45:42;;;;;;;23.88;12.73;;;0.00;99.90;;;-0.02;100.00;100219.75;5022196;28;20034;-80
2023/12/08 05:48:07;;;;;;;23.75;12.73;;;0.00;99.90;;;-0.06;100.00;100204.97;5017275;28;20056;-80
2023/12/08 05:50:33;;;;;;;24.42;12.35;;;0.10;99.90;;;-0.08;100.00;100204.31;5023708;28;20545;-79
2023/12/08 05:52:59;;;;;;;23.23;11.43;;;0.10;99.90;;;-0.07;100.00;100205.13;5030181;28;20044;-80
2023/12/08 05:55:24;;;;;;;26.77;13.50;;;0.10;99.90;;;-0.10;100.00;100192.03;5030396;28;20087;-80
2023/12/08 05:57:51;;;;;;;24.63;12.30;;;0.10;99.90;;;-0.08;100.00;100176.63;5018740;28;20034;-80
2023/12/08 06:00:18;;;;;;;23.13;11.82;;;0.00;99.90;;;-0.13;100.00;100174.44;5024425;28;20132;-81
2023/12/08 06:02:45;;;;;;;24.30;12.07;;;0.00;99.90;;;-0.16;100.00;100169.38;5023999;28;20036;-81
2023/12/08 06:05:12;;;;;;;22.23;11.38;;;0.00;99.90;;;-0.15;100.00;100185.31;5017509;28;20159;-80
2023/12/08 06:07:39;;;;;;;23.30;12.80;;;0.10;99.90;;;-0.02;100.00;100189.41;5013300;28;20358;-80
2023/12/08 06:10:07;;;;;;;25.25;12.38;;;0.10;99.90;;;0.03;100.00;100192.47;5029511;28;20040;-80
2023/12/08 06:12:34;;;;;;;22.90;11.98;;;0.10;99.90;;;0.04;100.00;100188.78;5037966;28;20037;-79
2023/12/08 06:15:00;;;;;;;25.60;13.43;;;0.10;99.90;;;0.05;100.00;100192.28;5019767;28;20474;-80
2023/12/08 06:17:27;;;;;;;22.63;11.85;;;0.10;99.90;;;0.12;100.00;100199.56;5016492;28;20048;-79
2023/12/08 06:19:53;;;;;;;24.67;12.38;;;0.20;99.90;;;0.06;100.00;100200.19;5026604;28;20373;-84
2023/12/08 06:22:19;;;;;;;23.75;11.40;;;0.10;99.90;;;-0.02;100.00;100189.41;5033051;28;20254;-79
2023/12/08 06:24:45;;;;;;;20.08;10.85;;;0.10;99.90;;;0.00;100.00;100187.44;5017943;28;20563;-79
2023/12/08 06:27:11;;;;;;;19.40;10.60;;;0.20;99.90;;;0.00;100.00;100190.09;5024886;28;20092;-80
2023/12/08 06:29:36;;;;;;;19.52;11.63;;;0.20;99.90;;;0.03;100.00;100192.47;5023097;28;20485;-78
2023/12/08 06:32:03;;;;;;;21.70;12.13;;;0.20;99.90;;;0.07;100.00;100187.59;5023868;28;20048;-79
2023/12/08 06:34:28;;;;;;;19.33;10.68;;;0.20;99.90;;;-0.04;100.00;100188.72;5024878;28;20081;-78
2023/12/08 06:36:54;;;;;;;21.70;11.32;;;0.20;99.90;;;0.03;100.00;100183.56;5028915;28;20553;-78
2023/12/08 06:39:20;;;;;;;21.88;10.35;;;0.20;99.90;;;0.02;100.00;100184.56;5024109;28;20061;-78
2023/12/08 06:41:46;;;;;;;24.15;11.73;;;0.20;99.90;;;0.02;100.00;100182.75;5024389;28;20071;-78
2023/12/08 06:44:12;;;;;;;19.23;10.50;;;0.20;99.90;;;-0.01;100.00;100185.72;5025897;28;20143;-77
2023/12/08 06:46:38;;;;;;;19.85;10.80;;;0.20;99.90;;;0.06;100.00;100180.56;5023671;28;20033;-80
2023/12/08 06:49:04;;;;;;;20.45;10.90;;;0.30;99.90;;;0.08;100.00;100170.50;5030058;28;20040;-79
2023/12/08 06:51:30;;;;;;;19.77;11.10;;;0.30;99.90;;;0.08;100.00;100175.88;5028508;28;20404;-79
2023/12/08 06:53:57;;;;;;;21.85;10.65;;;0.30;99.90;;;0.19;100.00;100172.94;5028655;28;20218;-79
2023/12/08 06:56:22;;;;;;;18.75;10.23;;;0.30;99.90;;;0.24;100.00;100181.34;5029451;28;20041;-81
2023/12/08 06:58:48;;;;;;;16.15;9.80;;;0.30;99.90;;;0.19;100.00;100177.44;5033064;28;20041;-79
2023/12/08 07:01:14;;;;;;;19.40;9.65;;;0.40;99.90;;;0.23;100.00;100173.44;5024308;28;20045;-78
2023/12/08 07:03:40;;;;;;;18.30;9.90;;;0.40;99.90;;;0.21;100.00;100172.75;5017299;28;20052;-78
2023/12/08 07:06:06;;;;;;;16.50;9.40;;;0.40;99.90;;;0.21;100.00;100168.25;5022022;28;20366;-79
2023/12/08 07:08:31;;;;;;;15.90;9.52;;;0.40;99.90;;;0.22;100.00;100172.59;5019170;28;20030;-78
2023/12/08 07:10:57;;;;;;;16.58;8.77;;;0.40;99.90;;;0.16;100.00;100153.63;5018892;28;20046;-80
2023/12/08 07:13:23;;;;;;;18.70;9.02;;;0.40;99.90;;;0.23;100.00;100173.44;5022546;28;20034;-78
2023/12/08 07:15:48;;;;;;;15.88;9.40;;;0.40;99.90;;;0.23;100.00;100168.06;5022117;28;20484;-79
2023/12/08 07:18:14;;;;;;;18.60;9.27;;;0.40;99.90;;;0.21;100.00;100172.75;5023504;28;20052;-78
2023/12/08 07:20:40;;;;;;;18.70;9.73;;;0.40;99.90;;;0.22;100.00;100175.28;5027903;28;20040;-78
2023/12/08 07:23:06;;;;;;;18.17;9.68;;;0.40;99.90;;;0.25;100.00;100168.75;5031353;28;20053;-78
2023/12/08 07:25:32;;;;;;;17.60;9.13;;;0.40;99.90;;;0.28;100.00;100171.13;5012562;28;20034;-77
2023/12/08 07:27:57;;;;;;;17.75;9.80;;;0.40;99.90;;;0.30;100.00;100169.13;5029103;28;20440;-78
2023/12/08 07:30:23;;;;;;;17.77;9.68;;;0.40;99.90;;;0.26;100.00;100163.22;5029817;28;20124;-77
2023/12/08 07:32:50;;;;;;;16.58;9.00;;;0.40;99.90;;;0.28;100.00;100169.28;5021115;28;20045;-78
2023/12/08 07:35:16;;;;;;;16.92;9.73;;;0.40;99.90;;;0.26;100.00;100173.97;5028868;28;20037;-78
2023/12/08 07:37:42;;;;;;;21.27;10.93;;;0.40;99.90;;;0.23;100.00;100168.91;5010757;28;20092;-78
2023/12/08 07:40:09;;;;;;;18.20;10.32;;;0.40;99.90;;;0.27;100.00;100167.59;5014003;28;20044;-77
2023/12/08 07:42:36;;;;;;;17.77;10.40;;;0.40;99.90;;;0.24;100.00;100159.88;5028855;28;20040;-79
2023/12/08 07:45:07;;;;;;;20.05;10.55;;;0.40;99.90;;;0.34;100.00;100164.25;5022311;28;20113;-79
2023/12/08 07:47:33;;;;;;;20.55;10.35;;;0.40;99.90;;;0.22;100.00;100155.66;5025936;28;20045;-78
2023/12/08 07:49:59;;;;;;;21.98;11.65;;;0.40;99.90;;;0.24;100.00;100162.53;5016543;28;20670;-78
2023/12/08 07:52:25;;;;;;;20.33;11.75;;;0.40;99.90;;;0.26;100.00;100162.38;5021575;28;20045;-78
2023/12/08 07:54:51;;;;;;;20.50;11.98;;;0.40;99.90;;;0.21;100.00;100159.34;5022290;28;20113;-78
2023/12/08 07:57:18;;;;;;;24.95;11.75;;;0.40;99.90;;;0.25;100.00;100158.88;5017139;28;20072;-78
2023/12/08 07:59:44;;;;;;;23.80;11.73;;;0.40;99.90;;;0.22;100.00;100158.34;5037262;28;20096;-78
2023/12/08 08:02:10;;;;;;;23.92;12.40;;;0.40;99.90;;;0.24;100.00;100153.63;5025826;28;20117;-78
2023/12/08 08:04:36;;;;;;;23.73;12.25;;;0.40;99.90;;;0.25;100.00;100147.28;5032275;28;20108;-80
2023/12/08 08:07:02;;;;;;;23.92;12.68;;;0.40;99.90;;;0.23;100.00;100143.91;5026400;28;20068;-79
2023/12/08 08:09:27;;;;;;;26.30;12.48;;;0.40;99.90;;;0.36;100.00;100138.94;5020640;28;20049;-79
2023/12/08 08:11:53;;;;;;;25.65;12.73;;;0.40;99.90;;;0.31;100.00;100138.59;5043068;28;20045;-79
2023/12/08 08:14:20;;;;;;;25.67;12.07;;;0.40;99.90;;;0.25;100.00;100140.06;5021580;28;20033;-79
2023/12/08 08:16:47;;;;;;;25.65;12.55;;;0.40;99.90;;;0.25;100.00;100145.44;5027688;28;20042;-78
2023/12/08 08:19:13;;;;;;;25.73;13.20;;;0.40;99.90;;;0.20;100.00;100138.88;5031458;28;20053;-80
2023/12/08 08:21:39;;;;;;;28.27;13.82;;;0.30;99.90;;;0.24;100.00;100141.09;5032056;28;20042;-79
2023/12/08 08:24:05;;;;;;;25.35;13.93;;;0.30;99.90;;;0.26;100.00;100144.44;5019281;28;20037;-78
2023/12/08 08:26:31;;;;;;;28.50;13.63;;;0.40;99.90;;;0.31;100.00;100132.38;5039782;28;20037;-78
2023/12/08 08:28:56;;;;;;;27.13;14.40;;;0.40;99.90;;;0.37;100.00;100151.38;5017897;28;20500;-78
2023/12/08 08:31:22;;;;;;;28.20;14.38;;;0.40;99.90;;;0.35;100.00;100148.00;5025210;28;20042;-79
2023/12/08 08:33:48;;;;;;;28.67;13.80;;;0.40;99.90;;;0.30;100.00;100154.84;5031842;28;20038;-78
2023/12/08 08:36:14;;;;;;;30.73;14.10;;;0.40;99.90;;;0.37;100.00;100163.94;5019364;28;20045;-79
2023/12/08 08:38:40;;;;;;;30.67;14.20;;;0.50;99.90;;;0.34;100.00;100165.09;5034606;28;20475;-79
2023/12/08 08:41:06;;;;;;;29.85;14.93;;;0.50;99.90;;;0.33;100.00;100176.84;5026369;28;20044;-79
2023/12/08 08:43:32;;;;;;;26.80;14.10;;;0.50;99.90;;;0.37;100.00;100180.88;5022124;28;20034;-79
2023/12/08 08:45:57;;;;;;;29.50;15.25;;;0.50;99.90;;;0.36;100.00;100183.72;5031819;28;20076;-79
2023/12/08 08:48:23;;;;;;;32.17;15.10;;;0.50;99.90;;;0.35;100.00;100182.88;5027812;28;20071;-78
2023/12/08 08:50:49;;;;;;;28.42;14.60;;;0.50;99.90;;;0.26;100.00;100179.31;5030757;28;20041;-79
2023/12/08 08:53:18;;;;;;;32.58;15.63;;;0.50;99.90;;;0.25;100.00;100174.97;5033093;28;20045;-79
2023/12/08 08:55:45;;;;;;;29.20;15.70;;;0.50;99.90;;;0.25;100.00;100172.28;5022384;28;20048;-79
2023/12/08 08:58:10;;;;;;;29.40;15.20;;;0.50;99.90;;;0.32;100.00;100175.16;5032956;28;20104;-80
2023/12/08 09:00:40;;;;;;;30.27;15.55;;;0.50;99.90;;;0.33;100.00;100176.84;5023247;28;20882;-80
2023/12/08 09:03:06;;;;;;;31.00;15.30;;;0.50;99.90;;;0.20;100.00;100171.06;5020562;28;20040;-80
2023/12/08 09:05:34;;;;;;;32.80;16.20;;;0.50;99.90;;;0.17;100.00;100171.41;5027143;28;20739;-81
2023/12/08 09:08:00;;;;;;;30.20;15.45;;;0.40;99.90;;;0.20;100.00;100174.59;5023480;28;20128;-80
2023/12/08 09:10:25;;;;;;;32.28;15.27;;;0.40;99.90;;;0.12;100.00;100167.34;5025925;28;20034;-82
2023/12/08 09:12:51;;;;;;;32.30;16.27;;;0.40;99.90;;;0.20;100.00;100176.44;5023257;28;20111;-81
2023/12/08 09:15:17;;;;;;;29.70;15.13;;;0.40;99.90;;;0.16;100.00;100162.53;5039655;28;20048;-79
2023/12/08 09:17:43;;;;;;;34.85;15.25;;;0.40;99.90;;;0.19;100.00;100178.28;5020578;28;20401;-80
2023/12/08 09:20:14;;;;;;;33.97;16.88;;;0.40;99.90;;;0.10;100.00;100155.94;5033899;28;20429;-81
2023/12/08 09:22:44;;;;;;;32.60;15.70;;;0.30;99.90;;;0.13;100.00;100146.72;5025741;28;20564;-80
2023/12/08 09:25:10;;;;;;;30.92;15.30;;;0.30;99.90;;;-0.02;100.00;100128.56;5027044;28;20037;-81
2023/12/08 09:27:36;;;;;;;32.30;16.13;;;0.30;99.90;;;0.06;100.00;100149.22;5034913;28;20397;-80
2023/12/08 09:30:03;;;;;;;32.35;16.25;;;0.30;99.90;;;0.08;100.00;100139.16;5030811;28;20033;-81
2023/12/08 09:32:29;;;;;;;33.38;16.70;;;0.30;99.90;;;0.07;100.00;100144.69;5040775;28;20045;-81
2023/12/08 09:34:55;;;;;;;34.88;16.63;;;0.30;99.90;;;0.06;100.00;100151.91;5020608;28;20038;-82
2023/12/08 09:37:21;;;;;;;39.42;17.48;;;0.30;99.90;;;-0.03;100.00;100129.56;5020553;28;20040;-81
2023/12/08 09:39:47;;;;;;;41.28;19.05;;;0.20;99.90;;;-0.05;100.00;100119.97;5019092;28;20456;-84
2023/12/08 09:42:36;;;;;;;42.80;18.80;;;0.20;99.90;;;0.06;100.00;100135.81;5019717;28;20092;-82
2023/12/08 09:45:05;;;;;;;;;;;0.20;99.90;;;0.09;100.00;100132.81;5028096;28;20041;-84
2023/12/08 09:47:35;;;;;;;39.17;18.55;;;0.20;99.90;;;0.11;100.00;100129.94;5029543;28;20004;-82
2023/12/08 09:50:09;;;;;;;42.85;18.27;;;0.20;99.90;;;0.14;100.00;100124.28;5031478;28;20044;-85
2023/12/08 09:52:36;;;;;;;39.75;19.20;;;0.20;99.90;;;0.14;100.00;100116.25;5016982;28;20033;-84
2023/12/08 09:55:03;;;;;;;39.50;18.77;;;0.20;99.90;;;0.15;100.00;100101.81;5026781;28;20041;-83
2023/12/08 09:57:34;;;;;;;44.65;20.63;;;0.20;99.90;;;0.11;100.00;100095.06;5019838;28;20041;-81